sensor_id;sensor_type;location;lat;lon;timestamp;temperature;humidity
2967;DHT22;1493;51.496;7.210;2024-02-21T00:00:26;9.40;99.90
2967;DHT22;1493;51.496;7.210;2024-02-21T00:02:53;9.40;99.90
2967;DHT22;1493;51.496;7.210;2024-02-21T00:05:20;9.40;99.90
2967;DHT22;1493;51.496;7.210;2024-02-21T00:07:47;9.40;99.90
2967;DHT22;1493;51.496;7.210;2024-02-21T00:10:15;9.30;99.90
2967;DHT22;1493;51.496;7.210;2024-02-21T00:12:42;9.30;99.90
2967;DHT22;1493;51.496;7.210;2024-02-21T00:15:09;9.30;99.90
2967;DHT22;1493;51.496;7.210;2024-02-21T00:17:36;9.40;99.90
2967;DHT22;1493;51.496;7.210;2024-02-21T00:20:03;9.40;99.90
2967;DHT22;1493;51.496;7.210;2024-02-21T00:22:30;9.30;99.90
2967;DHT22;1493;51.496;7.210;2024-02-21T00:24:59;9.30;99.90
2967;DHT22;1493;51.496;7.210;2024-02-21T00:27:27;9.30;99.90
2967;DHT22;1493;51.496;7.210;2024-02-21T00:29:54;9.40;99.90
2967;DHT22;1493;51.496;7.210;2024-02-21T00:32:21;9.40;99.90
2967;DHT22;1493;51.496;7.210;2024-02-21T00:34:47;9.40;99.90
2967;DHT22;1493;51.496;7.210;2024-02-21T00:37:14;9.40;99.90
2967;DHT22;1493;51.496;7.210;2024-02-21T00:39:41;9.40;99.90
2967;DHT22;1493;51.496;7.210;2024-02-21T00:42:08;9.40;99.90
2967;DHT22;1493;51.496;7.210;2024-02-21T00:44:37;9.40;99.90
2967;DHT22;1493;51.496;7.210;2024-02-21T00:47:03;9.40;99.90
2967;DHT22;1493;51.496;7.210;2024-02-21T00:49:30;9.40;99.90
2967;DHT22;1493;51.496;7.210;2024-02-21T00:51:57;9.30;99.90
2967;DHT22;1493;51.496;7.210;2024-02-21T00:54:24;9.30;99.90
2967;DHT22;1493;51.496;7.210;2024-02-21T00:56:51;9.40;99.90
2967;DHT22;1493;51.496;7.210;2024-02-21T00:59:18;9.40;99.90
2967;DHT22;1493;51.496;7.210;2024-02-21T01:01:46;9.40;99.90
2967;DHT22;1493;51.496;7.210;2024-02-21T01:04:13;9.40;99.90
2967;DHT22;1493;51.496;7.210;2024-02-21T01:06:40;9.40;99.90
2967;DHT22;1493;51.496;7.210;2024-02-21T01:09:09;9.40;99.90
2967;DHT22;1493;51.496;7.210;2024-02-21T01:11:36;9.40;99.90
2967;DHT22;1493;51.496;7.210;2024-02-21T01:14:03;9.30;99.90
2967;DHT22;1493;51.496;7.210;2024-02-21T01:16:30;9.30;99.90
2967;DHT22;1493;51.496;7.210;2024-02-21T01:18:58;9.40;99.90
2967;DHT22;1493;51.496;7.210;2024-02-21T01:21:25;9.40;99.90
2967;DHT22;1493;51.496;7.210;2024-02-21T01:23:51;9.40;99.90
2967;DHT22;1493;51.496;7.210;2024-02-21T01:26:18;9.30;99.90
2967;DHT22;1493;51.496;7.210;2024-02-21T01:28:45;9.30;99.90
2967;DHT22;1493;51.496;7.210;2024-02-21T01:31:12;9.30;99.90
2967;DHT22;1493;51.496;7.210;2024-02-21T01:33:40;9.30;99.90
2967;DHT22;1493;51.496;7.210;2024-02-21T01:36:09;9.20;99.90
2967;DHT22;1493;51.496;7.210;2024-02-21T01:38:36;9.20;99.90
2967;DHT22;1493;51.496;7.210;2024-02-21T01:41:03;9.20;99.90
2967;DHT22;1493;51.496;7.210;2024-02-21T01:43:30;9.10;99.90
2967;DHT22;1493;51.496;7.210;2024-02-21T01:45:57;9.10;99.90
2967;DHT22;1493;51.496;7.210;2024-02-21T01:48:24;9.10;99.90
2967;DHT22;1493;51.496;7.210;2024-02-21T01:50:54;9.10;99.90
2967;DHT22;1493;51.496;7.210;2024-02-21T01:53:24;9.10;99.90
2967;DHT22;1493;51.496;7.210;2024-02-21T01:55:52;9.10;99.90
2967;DHT22;1493;51.496;7.210;2024-02-21T01:58:19;9.10;99.90
2967;DHT22;1493;51.496;7.210;2024-02-21T02:00:48;9.10;99.90
2967;DHT22;1493;51.496;7.210;2024-02-21T02:03:15;9.20;99.90
2967;DHT22;1493;51.496;7.210;2024-02-21T02:05:43;9.20;99.90
2967;DHT22;1493;51.496;7.210;2024-02-21T02:08:10;9.10;99.90
2967;DHT22;1493;51.496;7.210;2024-02-21T02:10:41;9.20;99.90
2967;DHT22;1493;51.496;7.210;2024-02-21T02:13:08;9.20;99.90
2967;DHT22;1493;51.496;7.210;2024-02-21T02:15:38;9.20;99.90
2967;DHT22;1493;51.496;7.210;2024-02-21T02:18:05;9.20;99.90
2967;DHT22;1493;51.496;7.210;2024-02-21T02:20:32;9.20;99.90
2967;DHT22;1493;51.496;7.210;2024-02-21T02:22:59;9.30;99.90
2967;DHT22;1493;51.496;7.210;2024-02-21T02:25:28;9.30;99.90
2967;DHT22;1493;51.496;7.210;2024-02-21T02:27:55;9.20;99.90
2967;DHT22;1493;51.496;7.210;2024-02-21T02:30:21;9.20;99.90
2967;DHT22;1493;51.496;7.210;2024-02-21T02:32:48;9.20;99.90
2967;DHT22;1493;51.496;7.210;2024-02-21T02:35:15;9.20;99.90
2967;DHT22;1493;51.496;7.210;2024-02-21T02:37:48;9.20;99.90
2967;DHT22;1493;51.496;7.210;2024-02-21T02:40:15;9.20;99.90
2967;DHT22;1493;51.496;7.210;2024-02-21T02:42:43;9.20;99.90
2967;DHT22;1493;51.496;7.210;2024-02-21T02:45:10;9.20;99.90
2967;DHT22;1493;51.496;7.210;2024-02-21T02:47:38;9.10;99.90
2967;DHT22;1493;51.496;7.210;2024-02-21T02:50:07;9.10;99.90
2967;DHT22;1493;51.496;7.210;2024-02-21T02:52:34;9.00;99.90
2967;DHT22;1493;51.496;7.210;2024-02-21T02:55:00;8.90;99.90
2967;DHT22;1493;51.496;7.210;2024-02-21T02:57:27;9.00;99.90
2967;DHT22;1493;51.496;7.210;2024-02-21T02:59:55;9.00;99.90
2967;DHT22;1493;51.496;7.210;2024-02-21T03:02:23;9.00;99.90
2967;DHT22;1493;51.496;7.210;2024-02-21T03:04:50;8.90;99.90
2967;DHT22;1493;51.496;7.210;2024-02-21T03:07:17;9.00;99.90
2967;DHT22;1493;51.496;7.210;2024-02-21T03:09:43;9.10;99.90
2967;DHT22;1493;51.496;7.210;2024-02-21T03:12:10;9.00;99.90
2967;DHT22;1493;51.496;7.210;2024-02-21T03:14:37;9.00;99.90
2967;DHT22;1493;51.496;7.210;2024-02-21T03:17:05;8.90;99.90
2967;DHT22;1493;51.496;7.210;2024-02-21T03:19:32;9.00;99.90
2967;DHT22;1493;51.496;7.210;2024-02-21T03:21:59;9.00;99.90
2967;DHT22;1493;51.496;7.210;2024-02-21T03:24:26;9.10;99.90
2967;DHT22;1493;51.496;7.210;2024-02-21T03:26:54;9.20;99.90
2967;DHT22;1493;51.496;7.210;2024-02-21T03:29:21;9.20;99.90
2967;DHT22;1493;51.496;7.210;2024-02-21T03:31:48;9.20;99.90
2967;DHT22;1493;51.496;7.210;2024-02-21T03:34:16;9.20;99.90
2967;DHT22;1493;51.496;7.210;2024-02-21T03:36:43;9.20;99.90
2967;DHT22;1493;51.496;7.210;2024-02-21T03:39:10;9.20;99.90
2967;DHT22;1493;51.496;7.210;2024-02-21T03:41:37;9.20;99.90
2967;DHT22;1493;51.496;7.210;2024-02-21T03:44:04;9.20;99.90
2967;DHT22;1493;51.496;7.210;2024-02-21T03:46:30;9.20;99.90
2967;DHT22;1493;51.496;7.210;2024-02-21T03:48:57;9.20;99.90
2967;DHT22;1493;51.496;7.210;2024-02-21T03:51:26;9.20;99.90
2967;DHT22;1493;51.496;7.210;2024-02-21T03:53:53;9.20;99.90
2967;DHT22;1493;51.496;7.210;2024-02-21T03:56:20;9.20;99.90
2967;DHT22;1493;51.496;7.210;2024-02-21T03:58:46;9.20;99.90
2967;DHT22;1493;51.496;7.210;2024-02-21T04:01:15;9.20;99.90
2967;DHT22;1493;51.496;7.210;2024-02-21T04:03:43;9.20;99.90
2967;DHT22;1493;51.496;7.210;2024-02-21T04:06:10;9.30;99.90
2967;DHT22;1493;51.496;7.210;2024-02-21T04:08:38;9.40;99.90
2967;DHT22;1493;51.496;7.210;2024-02-21T04:11:05;9.40;99.90
2967;DHT22;1493;51.496;7.210;2024-02-21T04:13:32;9.40;99.90
2967;DHT22;1493;51.496;7.210;2024-02-21T04:15:59;9.40;99.90
2967;DHT22;1493;51.496;7.210;2024-02-21T04:18:26;9.40;99.90
2967;DHT22;1493;51.496;7.210;2024-02-21T04:20:53;9.40;99.90
2967;DHT22;1493;51.496;7.210;2024-02-21T04:23:20;9.40;99.90
2967;DHT22;1493;51.496;7.210;2024-02-21T04:25:48;9.40;99.90
2967;DHT22;1493;51.496;7.210;2024-02-21T04:28:15;9.40;99.90
2967;DHT22;1493;51.496;7.210;2024-02-21T04:30:42;9.30;99.90
2967;DHT22;1493;51.496;7.210;2024-02-21T04:33:08;9.30;99.90
2967;DHT22;1493;51.496;7.210;2024-02-21T04:35:36;9.30;99.90
2967;DHT22;1493;51.496;7.210;2024-02-21T04:38:03;9.30;99.90
2967;DHT22;1493;51.496;7.210;2024-02-21T04:40:30;9.30;99.90
2967;DHT22;1493;51.496;7.210;2024-02-21T04:42:59;9.30;99.90
2967;DHT22;1493;51.496;7.210;2024-02-21T04:45:25;9.40;99.90
2967;DHT22;1493;51.496;7.210;2024-02-21T04:47:52;9.40;99.90
2967;DHT22;1493;51.496;7.210;2024-02-21T04:50:19;9.40;99.90
2967;DHT22;1493;51.496;7.210;2024-02-21T04:52:46;9.40;99.90
2967;DHT22;1493;51.496;7.210;2024-02-21T04:55:13;9.40;99.90
2967;DHT22;1493;51.496;7.210;2024-02-21T04:57:40;9.40;99.90
2967;DHT22;1493;51.496;7.210;2024-02-21T05:00:09;9.40;99.90
2967;DHT22;1493;51.496;7.210;2024-02-21T05:02:36;9.40;99.90
2967;DHT22;1493;51.496;7.210;2024-02-21T05:05:03;9.30;99.90
2967;DHT22;1493;51.496;7.210;2024-02-21T05:07:31;9.30;99.90
2967;DHT22;1493;51.496;7.210;2024-02-21T05:09:57;9.30;99.90
2967;DHT22;1493;51.496;7.210;2024-02-21T05:12:24;9.30;99.90
2967;DHT22;1493;51.496;7.210;2024-02-21T05:14:51;9.30;99.90
2967;DHT22;1493;51.496;7.210;2024-02-21T05:17:19;9.30;99.90
2967;DHT22;1493;51.496;7.210;2024-02-21T05:19:46;9.30;99.90
2967;DHT22;1493;51.496;7.210;2024-02-21T05:22:13;9.30;99.90
2967;DHT22;1493;51.496;7.210;2024-02-21T05:24:39;9.30;99.90
2967;DHT22;1493;51.496;7.210;2024-02-21T05:27:06;9.30;99.90
2967;DHT22;1493;51.496;7.210;2024-02-21T05:29:33;9.40;99.90
2967;DHT22;1493;51.496;7.210;2024-02-21T05:32:00;9.40;99.90
2967;DHT22;1493;51.496;7.210;2024-02-21T05:34:29;9.40;99.90
2967;DHT22;1493;51.496;7.210;2024-02-21T05:36:56;9.30;99.90
2967;DHT22;1493;51.496;7.210;2024-02-21T05:39:25;9.40;99.90
2967;DHT22;1493;51.496;7.210;2024-02-21T05:41:52;9.40;99.90
2967;DHT22;1493;51.496;7.210;2024-02-21T05:44:19;9.40;99.90
2967;DHT22;1493;51.496;7.210;2024-02-21T05:46:47;9.40;99.90
2967;DHT22;1493;51.496;7.210;2024-02-21T05:49:14;9.40;99.90
2967;DHT22;1493;51.496;7.210;2024-02-21T05:51:42;9.40;99.90
2967;DHT22;1493;51.496;7.210;2024-02-21T05:54:09;9.40;99.90
2967;DHT22;1493;51.496;7.210;2024-02-21T05:56:36;9.30;99.90
2967;DHT22;1493;51.496;7.210;2024-02-21T05:59:03;9.30;99.90
2967;DHT22;1493;51.496;7.210;2024-02-21T06:01:29;9.30;99.90
2967;DHT22;1493;51.496;7.210;2024-02-21T06:03:56;9.40;99.90
2967;DHT22;1493;51.496;7.210;2024-02-21T06:06:23;9.40;99.90
2967;DHT22;1493;51.496;7.210;2024-02-21T06:08:51;9.30;99.90
2967;DHT22;1493;51.496;7.210;2024-02-21T06:11:18;9.40;99.90
2967;DHT22;1493;51.496;7.210;2024-02-21T06:13:45;9.40;99.90
2967;DHT22;1493;51.496;7.210;2024-02-21T06:16:12;9.30;99.90
2967;DHT22;1493;51.496;7.210;2024-02-21T06:18:38;9.40;99.90
2967;DHT22;1493;51.496;7.210;2024-02-21T06:21:05;9.40;99.90
2967;DHT22;1493;51.496;7.210;2024-02-21T06:23:32;9.40;99.90
2967;DHT22;1493;51.496;7.210;2024-02-21T06:26:00;9.40;99.90
2967;DHT22;1493;51.496;7.210;2024-02-21T06:28:27;9.40;99.90
2967;DHT22;1493;51.496;7.210;2024-02-21T06:30:54;9.40;99.90
2967;DHT22;1493;51.496;7.210;2024-02-21T06:33:21;9.40;99.90
2967;DHT22;1493;51.496;7.210;2024-02-21T06:35:50;9.30;99.90
2967;DHT22;1493;51.496;7.210;2024-02-21T06:38:18;9.30;99.90
2967;DHT22;1493;51.496;7.210;2024-02-21T06:40:45;9.30;99.90
2967;DHT22;1493;51.496;7.210;2024-02-21T06:43:17;9.30;99.90
2967;DHT22;1493;51.496;7.210;2024-02-21T06:45:44;9.30;99.90
2967;DHT22;1493;51.496;7.210;2024-02-21T06:48:13;9.40;99.90
2967;DHT22;1493;51.496;7.210;2024-02-21T06:50:40;9.40;99.90
2967;DHT22;1493;51.496;7.210;2024-02-21T06:53:07;9.40;99.90
2967;DHT22;1493;51.496;7.210;2024-02-21T06:55:33;9.40;99.90
2967;DHT22;1493;51.496;7.210;2024-02-21T06:58:00;9.40;99.90
2967;DHT22;1493;51.496;7.210;2024-02-21T07:00:29;9.40;99.90
2967;DHT22;1493;51.496;7.210;2024-02-21T07:02:56;9.40;99.90
2967;DHT22;1493;51.496;7.210;2024-02-21T07:05:23;9.40;99.90
2967;DHT22;1493;51.496;7.210;2024-02-21T07:07:50;9.50;99.90
2967;DHT22;1493;51.496;7.210;2024-02-21T07:10:17;9.50;99.90
2967;DHT22;1493;51.496;7.210;2024-02-21T07:12:44;9.60;99.90
2967;DHT22;1493;51.496;7.210;2024-02-21T07:15:10;9.50;99.90
2967;DHT22;1493;51.496;7.210;2024-02-21T07:17:39;9.60;99.90
2967;DHT22;1493;51.496;7.210;2024-02-21T07:20:07;9.50;99.90
2967;DHT22;1493;51.496;7.210;2024-02-21T07:22:34;9.50;99.90
2967;DHT22;1493;51.496;7.210;2024-02-21T07:25:01;9.60;99.90
2967;DHT22;1493;51.496;7.210;2024-02-21T07:27:28;9.60;99.90
2967;DHT22;1493;51.496;7.210;2024-02-21T07:29:56;9.60;99.90
2967;DHT22;1493;51.496;7.210;2024-02-21T07:32:23;9.70;99.90
2967;DHT22;1493;51.496;7.210;2024-02-21T07:34:51;9.70;99.90
2967;DHT22;1493;51.496;7.210;2024-02-21T07:37:18;9.70;99.90
2967;DHT22;1493;51.496;7.210;2024-02-21T07:39:45;9.70;99.90
2967;DHT22;1493;51.496;7.210;2024-02-21T07:42:12;9.80;99.90
2967;DHT22;1493;51.496;7.210;2024-02-21T07:44:39;9.80;99.90
2967;DHT22;1493;51.496;7.210;2024-02-21T07:47:06;9.90;99.90
2967;DHT22;1493;51.496;7.210;2024-02-21T07:49:40;9.90;99.90
2967;DHT22;1493;51.496;7.210;2024-02-21T07:52:08;9.80;99.90
2967;DHT22;1493;51.496;7.210;2024-02-21T07:54:35;9.80;99.90
2967;DHT22;1493;51.496;7.210;2024-02-21T07:57:02;9.90;99.90
2967;DHT22;1493;51.496;7.210;2024-02-21T07:59:29;10.00;99.90
2967;DHT22;1493;51.496;7.210;2024-02-21T08:01:57;10.00;99.90
2967;DHT22;1493;51.496;7.210;2024-02-21T08:04:24;9.90;99.90
2967;DHT22;1493;51.496;7.210;2024-02-21T08:06:52;10.00;99.90
2967;DHT22;1493;51.496;7.210;2024-02-21T08:09:22;10.00;99.90
2967;DHT22;1493;51.496;7.210;2024-02-21T08:11:49;10.00;99.90
2967;DHT22;1493;51.496;7.210;2024-02-21T08:14:16;10.00;99.90
2967;DHT22;1493;51.496;7.210;2024-02-21T08:16:43;10.10;99.90
2967;DHT22;1493;51.496;7.210;2024-02-21T08:19:10;10.10;99.90
2967;DHT22;1493;51.496;7.210;2024-02-21T08:21:37;10.10;99.90
2967;DHT22;1493;51.496;7.210;2024-02-21T08:24:06;10.20;99.90
2967;DHT22;1493;51.496;7.210;2024-02-21T08:26:34;10.10;99.90
2967;DHT22;1493;51.496;7.210;2024-02-21T08:29:01;10.20;99.90
2967;DHT22;1493;51.496;7.210;2024-02-21T08:31:28;10.10;99.90
2967;DHT22;1493;51.496;7.210;2024-02-21T08:33:57;10.20;99.90
2967;DHT22;1493;51.496;7.210;2024-02-21T08:36:28;10.10;99.90
2967;DHT22;1493;51.496;7.210;2024-02-21T08:38:55;10.20;99.90
2967;DHT22;1493;51.496;7.210;2024-02-21T08:41:22;10.20;99.90
2967;DHT22;1493;51.496;7.210;2024-02-21T08:43:51;10.40;99.90
2967;DHT22;1493;51.496;7.210;2024-02-21T08:46:17;10.20;99.90
2967;DHT22;1493;51.496;7.210;2024-02-21T08:48:44;10.20;99.90
2967;DHT22;1493;51.496;7.210;2024-02-21T08:51:12;10.30;99.90
2967;DHT22;1493;51.496;7.210;2024-02-21T08:53:39;10.40;99.90
2967;DHT22;1493;51.496;7.210;2024-02-21T08:56:06;10.50;99.90
2967;DHT22;1493;51.496;7.210;2024-02-21T08:58:34;10.50;99.90
2967;DHT22;1493;51.496;7.210;2024-02-21T09:01:03;10.40;99.90
2967;DHT22;1493;51.496;7.210;2024-02-21T09:03:31;10.30;99.90
2967;DHT22;1493;51.496;7.210;2024-02-21T09:05:58;10.10;99.90
2967;DHT22;1493;51.496;7.210;2024-02-21T09:08:25;10.10;99.90
2967;DHT22;1493;51.496;7.210;2024-02-21T09:10:52;10.10;99.90
2967;DHT22;1493;51.496;7.210;2024-02-21T09:13:19;10.20;99.90
2967;DHT22;1493;51.496;7.210;2024-02-21T09:15:46;10.00;99.90
2967;DHT22;1493;51.496;7.210;2024-02-21T09:18:15;10.00;99.90
2967;DHT22;1493;51.496;7.210;2024-02-21T09:20:41;10.20;99.90
2967;DHT22;1493;51.496;7.210;2024-02-21T09:23:08;10.20;99.90
2967;DHT22;1493;51.496;7.210;2024-02-21T09:25:35;10.00;99.90
2967;DHT22;1493;51.496;7.210;2024-02-21T09:28:02;10.00;99.90
2967;DHT22;1493;51.496;7.210;2024-02-21T09:30:31;10.00;99.90
2967;DHT22;1493;51.496;7.210;2024-02-21T09:32:58;10.00;99.90
2967;DHT22;1493;51.496;7.210;2024-02-21T09:35:28;10.00;99.90
2967;DHT22;1493;51.496;7.210;2024-02-21T09:37:55;9.90;99.90
2967;DHT22;1493;51.496;7.210;2024-02-21T09:40:22;9.80;99.90
2967;DHT22;1493;51.496;7.210;2024-02-21T09:42:55;9.80;99.90
2967;DHT22;1493;51.496;7.210;2024-02-21T09:45:25;9.70;99.90
2967;DHT22;1493;51.496;7.210;2024-02-21T09:48:11;9.70;99.90
2967;DHT22;1493;51.496;7.210;2024-02-21T09:50:43;9.70;99.90
2967;DHT22;1493;51.496;7.210;2024-02-21T09:53:12;9.70;99.90
2967;DHT22;1493;51.496;7.210;2024-02-21T09:55:40;9.60;99.90
2967;DHT22;1493;51.496;7.210;2024-02-21T09:58:07;9.60;99.90
2967;DHT22;1493;51.496;7.210;2024-02-21T10:00:35;9.70;99.90
2967;DHT22;1493;51.496;7.210;2024-02-21T10:03:02;9.50;99.90
2967;DHT22;1493;51.496;7.210;2024-02-21T10:05:33;9.50;99.90
2967;DHT22;1493;51.496;7.210;2024-02-21T10:08:02;9.50;99.90
2967;DHT22;1493;51.496;7.210;2024-02-21T10:10:29;9.50;99.90
2967;DHT22;1493;51.496;7.210;2024-02-21T10:12:57;9.70;99.90
2967;DHT22;1493;51.496;7.210;2024-02-21T10:15:24;9.90;99.90
2967;DHT22;1493;51.496;7.210;2024-02-21T10:17:58;10.10;99.90
2967;DHT22;1493;51.496;7.210;2024-02-21T10:20:26;10.10;99.90
2967;DHT22;1493;51.496;7.210;2024-02-21T10:23:02;10.20;99.90
2967;DHT22;1493;51.496;7.210;2024-02-21T10:25:33;10.20;99.90
2967;DHT22;1493;51.496;7.210;2024-02-21T10:28:01;10.20;99.90
2967;DHT22;1493;51.496;7.210;2024-02-21T10:30:28;10.30;99.90
2967;DHT22;1493;51.496;7.210;2024-02-21T10:32:55;10.50;99.90
2967;DHT22;1493;51.496;7.210;2024-02-21T10:35:26;10.70;99.90
2967;DHT22;1493;51.496;7.210;2024-02-21T10:37:54;10.80;99.90
2967;DHT22;1493;51.496;7.210;2024-02-21T10:40:23;11.00;99.90
2967;DHT22;1493;51.496;7.210;2024-02-21T10:42:55;11.10;99.90
2967;DHT22;1493;51.496;7.210;2024-02-21T10:45:24;11.20;99.90
2967;DHT22;1493;51.496;7.210;2024-02-21T10:47:56;11.00;99.90
2967;DHT22;1493;51.496;7.210;2024-02-21T10:50:29;10.90;99.90
2967;DHT22;1493;51.496;7.210;2024-02-21T10:53:05;10.80;99.90
2967;DHT22;1493;51.496;7.210;2024-02-21T10:55:39;10.80;99.90
2967;DHT22;1493;51.496;7.210;2024-02-21T10:58:09;10.90;99.90
2967;DHT22;1493;51.496;7.210;2024-02-21T11:00:37;11.10;99.90
2967;DHT22;1493;51.496;7.210;2024-02-21T11:03:04;11.00;99.90
2967;DHT22;1493;51.496;7.210;2024-02-21T11:05:32;10.90;99.90
2967;DHT22;1493;51.496;7.210;2024-02-21T11:07:59;11.00;99.90
2967;DHT22;1493;51.496;7.210;2024-02-21T11:10:27;11.30;99.90
2967;DHT22;1493;51.496;7.210;2024-02-21T11:13:05;11.50;99.90
2967;DHT22;1493;51.496;7.210;2024-02-21T11:15:33;11.40;99.90
2967;DHT22;1493;51.496;7.210;2024-02-21T11:18:00;11.50;99.90
2967;DHT22;1493;51.496;7.210;2024-02-21T11:20:34;11.60;99.90
2967;DHT22;1493;51.496;7.210;2024-02-21T11:23:01;11.60;99.90
2967;DHT22;1493;51.496;7.210;2024-02-21T11:25:28;11.60;99.90
2967;DHT22;1493;51.496;7.210;2024-02-21T11:28:02;11.60;99.90
2967;DHT22;1493;51.496;7.210;2024-02-21T11:30:30;11.90;99.90
2967;DHT22;1493;51.496;7.210;2024-02-21T11:33:02;11.90;99.90
2967;DHT22;1493;51.496;7.210;2024-02-21T11:35:33;11.70;99.90
2967;DHT22;1493;51.496;7.210;2024-02-21T11:38:11;11.80;99.90
2967;DHT22;1493;51.496;7.210;2024-02-21T11:40:40;12.00;99.90
2967;DHT22;1493;51.496;7.210;2024-02-21T11:43:09;12.20;99.90
2967;DHT22;1493;51.496;7.210;2024-02-21T11:45:35;12.70;99.90
2967;DHT22;1493;51.496;7.210;2024-02-21T11:48:05;12.90;99.90
2967;DHT22;1493;51.496;7.210;2024-02-21T11:50:34;12.90;99.90
2967;DHT22;1493;51.496;7.210;2024-02-21T11:53:01;12.60;99.90
2967;DHT22;1493;51.496;7.210;2024-02-21T11:55:29;12.60;99.90
2967;DHT22;1493;51.496;7.210;2024-02-21T11:57:56;12.30;99.90
2967;DHT22;1493;51.496;7.210;2024-02-21T12:00:25;12.30;99.90
2967;DHT22;1493;51.496;7.210;2024-02-21T12:02:52;12.40;99.90
2967;DHT22;1493;51.496;7.210;2024-02-21T12:05:21;12.40;99.90
2967;DHT22;1493;51.496;7.210;2024-02-21T12:07:48;12.50;99.90
2967;DHT22;1493;51.496;7.210;2024-02-21T12:10:14;12.60;99.90
2967;DHT22;1493;51.496;7.210;2024-02-21T12:12:41;12.60;99.90
2967;DHT22;1493;51.496;7.210;2024-02-21T12:15:08;12.70;99.90
2967;DHT22;1493;51.496;7.210;2024-02-21T12:17:37;12.80;99.90
2967;DHT22;1493;51.496;7.210;2024-02-21T12:20:05;12.90;99.90
2967;DHT22;1493;51.496;7.210;2024-02-21T12:22:35;12.90;99.90
2967;DHT22;1493;51.496;7.210;2024-02-21T12:25:03;12.80;99.90
2967;DHT22;1493;51.496;7.210;2024-02-21T12:27:33;13.00;99.90
2967;DHT22;1493;51.496;7.210;2024-02-21T12:30:00;13.20;99.90
2967;DHT22;1493;51.496;7.210;2024-02-21T12:32:27;13.10;99.90
2967;DHT22;1493;51.496;7.210;2024-02-21T12:34:55;13.10;99.90
2967;DHT22;1493;51.496;7.210;2024-02-21T12:37:22;13.10;99.90
2967;DHT22;1493;51.496;7.210;2024-02-21T12:39:50;13.20;99.90
2967;DHT22;1493;51.496;7.210;2024-02-21T12:42:17;13.30;99.90
2967;DHT22;1493;51.496;7.210;2024-02-21T12:44:43;13.30;99.90
2967;DHT22;1493;51.496;7.210;2024-02-21T12:47:11;13.20;99.90
2967;DHT22;1493;51.496;7.210;2024-02-21T12:49:38;13.20;99.90
2967;DHT22;1493;51.496;7.210;2024-02-21T12:52:06;13.30;99.90
2967;DHT22;1493;51.496;7.210;2024-02-21T12:54:33;13.40;99.90
2967;DHT22;1493;51.496;7.210;2024-02-21T12:57:00;13.50;99.90
2967;DHT22;1493;51.496;7.210;2024-02-21T12:59:28;13.60;99.90
2967;DHT22;1493;51.496;7.210;2024-02-21T13:01:55;13.50;99.90
2967;DHT22;1493;51.496;7.210;2024-02-21T13:04:22;13.70;99.90
2967;DHT22;1493;51.496;7.210;2024-02-21T13:06:49;13.90;99.90
2967;DHT22;1493;51.496;7.210;2024-02-21T13:09:18;14.10;99.90
2967;DHT22;1493;51.496;7.210;2024-02-21T13:11:45;14.40;99.90
2967;DHT22;1493;51.496;7.210;2024-02-21T13:14:12;14.40;99.90
2967;DHT22;1493;51.496;7.210;2024-02-21T13:16:39;14.30;99.90
2967;DHT22;1493;51.496;7.210;2024-02-21T13:19:06;14.00;99.90
2967;DHT22;1493;51.496;7.210;2024-02-21T13:21:33;14.30;99.90
2967;DHT22;1493;51.496;7.210;2024-02-21T13:24:00;14.30;99.90
2967;DHT22;1493;51.496;7.210;2024-02-21T13:26:28;14.20;99.90
2967;DHT22;1493;51.496;7.210;2024-02-21T13:28:55;14.30;99.90
2967;DHT22;1493;51.496;7.210;2024-02-21T13:31:22;14.30;99.90
2967;DHT22;1493;51.496;7.210;2024-02-21T13:33:50;14.60;99.90
2967;DHT22;1493;51.496;7.210;2024-02-21T13:36:17;14.40;99.90
2967;DHT22;1493;51.496;7.210;2024-02-21T13:38:44;14.40;99.90
2967;DHT22;1493;51.496;7.210;2024-02-21T13:41:11;14.50;99.90
2967;DHT22;1493;51.496;7.210;2024-02-21T13:43:40;14.70;99.90
2967;DHT22;1493;51.496;7.210;2024-02-21T13:46:07;14.10;99.90
2967;DHT22;1493;51.496;7.210;2024-02-21T13:48:36;14.00;99.90
2967;DHT22;1493;51.496;7.210;2024-02-21T13:51:04;14.10;99.90
2967;DHT22;1493;51.496;7.210;2024-02-21T13:53:31;13.80;99.90
2967;DHT22;1493;51.496;7.210;2024-02-21T13:55:58;13.60;99.90
2967;DHT22;1493;51.496;7.210;2024-02-21T13:58:24;13.50;99.90
2967;DHT22;1493;51.496;7.210;2024-02-21T14:00:53;13.50;99.90
2967;DHT22;1493;51.496;7.210;2024-02-21T14:03:19;13.60;99.90
2967;DHT22;1493;51.496;7.210;2024-02-21T14:05:46;13.50;99.90
2967;DHT22;1493;51.496;7.210;2024-02-21T14:08:14;13.30;99.90
2967;DHT22;1493;51.496;7.210;2024-02-21T14:10:41;13.30;99.90
2967;DHT22;1493;51.496;7.210;2024-02-21T14:13:07;13.40;99.90
2967;DHT22;1493;51.496;7.210;2024-02-21T14:15:34;13.30;99.90
2967;DHT22;1493;51.496;7.210;2024-02-21T14:18:04;13.30;99.90
2967;DHT22;1493;51.496;7.210;2024-02-21T14:20:34;13.00;99.90
2967;DHT22;1493;51.496;7.210;2024-02-21T14:23:00;13.00;99.90
2967;DHT22;1493;51.496;7.210;2024-02-21T14:25:27;13.10;99.90
2967;DHT22;1493;51.496;7.210;2024-02-21T14:27:54;13.00;99.90
2967;DHT22;1493;51.496;7.210;2024-02-21T14:30:21;12.90;99.90
2967;DHT22;1493;51.496;7.210;2024-02-21T14:32:48;13.10;99.90
2967;DHT22;1493;51.496;7.210;2024-02-21T14:35:18;13.10;99.90
2967;DHT22;1493;51.496;7.210;2024-02-21T14:37:46;13.10;99.90
2967;DHT22;1493;51.496;7.210;2024-02-21T14:40:14;13.00;99.90
2967;DHT22;1493;51.496;7.210;2024-02-21T14:42:41;12.80;99.90
2967;DHT22;1493;51.496;7.210;2024-02-21T14:45:09;12.80;99.90
2967;DHT22;1493;51.496;7.210;2024-02-21T14:47:35;12.60;99.90
2967;DHT22;1493;51.496;7.210;2024-02-21T14:50:03;12.70;99.90
2967;DHT22;1493;51.496;7.210;2024-02-21T14:52:32;12.80;99.90
2967;DHT22;1493;51.496;7.210;2024-02-21T14:55:00;12.70;99.90
2967;DHT22;1493;51.496;7.210;2024-02-21T14:57:28;12.80;99.90
2967;DHT22;1493;51.496;7.210;2024-02-21T14:59:55;12.80;99.90
2967;DHT22;1493;51.496;7.210;2024-02-21T15:02:24;12.60;99.90
2967;DHT22;1493;51.496;7.210;2024-02-21T15:04:53;12.60;99.90
2967;DHT22;1493;51.496;7.210;2024-02-21T15:07:20;12.70;99.90
2967;DHT22;1493;51.496;7.210;2024-02-21T15:09:50;12.60;99.90
2967;DHT22;1493;51.496;7.210;2024-02-21T15:12:17;12.50;99.90
2967;DHT22;1493;51.496;7.210;2024-02-21T15:14:44;12.40;99.90
2967;DHT22;1493;51.496;7.210;2024-02-21T15:17:11;12.40;99.90
2967;DHT22;1493;51.496;7.210;2024-02-21T15:19:38;12.50;99.90
2967;DHT22;1493;51.496;7.210;2024-02-21T15:22:09;12.60;99.90
2967;DHT22;1493;51.496;7.210;2024-02-21T15:24:37;12.40;99.90
2967;DHT22;1493;51.496;7.210;2024-02-21T15:27:05;12.30;99.90
2967;DHT22;1493;51.496;7.210;2024-02-21T15:29:33;12.30;99.90
2967;DHT22;1493;51.496;7.210;2024-02-21T15:32:01;12.30;99.90
2967;DHT22;1493;51.496;7.210;2024-02-21T15:34:28;12.20;99.90
2967;DHT22;1493;51.496;7.210;2024-02-21T15:36:55;12.00;99.90
2967;DHT22;1493;51.496;7.210;2024-02-21T15:39:21;12.00;99.90
2967;DHT22;1493;51.496;7.210;2024-02-21T15:41:48;11.90;99.90
2967;DHT22;1493;51.496;7.210;2024-02-21T15:44:16;11.90;99.90
2967;DHT22;1493;51.496;7.210;2024-02-21T15:46:43;11.90;99.90
2967;DHT22;1493;51.496;7.210;2024-02-21T15:49:10;11.90;99.90
2967;DHT22;1493;51.496;7.210;2024-02-21T15:51:37;11.80;99.90
2967;DHT22;1493;51.496;7.210;2024-02-21T15:54:06;11.80;99.90
2967;DHT22;1493;51.496;7.210;2024-02-21T15:56:34;11.70;99.90
2967;DHT22;1493;51.496;7.210;2024-02-21T15:59:01;11.60;99.90
2967;DHT22;1493;51.496;7.210;2024-02-21T16:01:30;11.60;99.90
2967;DHT22;1493;51.496;7.210;2024-02-21T16:03:59;11.60;99.90
2967;DHT22;1493;51.496;7.210;2024-02-21T16:06:25;11.50;99.90
2967;DHT22;1493;51.496;7.210;2024-02-21T16:08:53;11.60;99.90
2967;DHT22;1493;51.496;7.210;2024-02-21T16:11:20;11.60;99.90